sensor_id;sensor_type;location;lat;lon;timestamp;pressure;altitude;pressure_sealevel;temperature;humidity
75051;BME280;63628;47.656;11.310;2023-05-02T00:01:15;94886.97;;;11.24;75.05
75051;BME280;63628;47.656;11.310;2023-05-02T00:03:42;94882.16;;;11.21;75.63
75051;BME280;63628;47.656;11.310;2023-05-02T00:06:09;94880.78;;;11.18;75.35
75051;BME280;63628;47.656;11.310;2023-05-02T00:08:38;94877.31;;;11.18;75.78
75051;BME280;63628;47.656;11.310;2023-05-02T00:11:04;94870.97;;;11.19;74.83
75051;BME280;63628;47.656;11.310;2023-05-02T00:13:31;94876.84;;;11.21;75.53
75051;BME280;63628;47.656;11.310;2023-05-02T00:15:58;94870.28;;;11.23;75.14
75051;BME280;63628;47.656;11.310;2023-05-02T00:18:24;94872.50;;;11.15;73.54
75051;BME280;63628;47.656;11.310;2023-05-02T00:20:51;94874.13;;;10.69;77.22
75051;BME280;63628;47.656;11.310;2023-05-02T00:23:18;94873.06;;;11.05;75.40
75051;BME280;63628;47.656;11.310;2023-05-02T00:25:45;94872.38;;;11.09;75.65
75051;BME280;63628;47.656;11.310;2023-05-02T00:28:12;94870.06;;;11.13;75.32
75051;BME280;63628;47.656;11.310;2023-05-02T00:30:42;94871.31;;;11.22;75.15
75051;BME280;63628;47.656;11.310;2023-05-02T00:33:08;94871.88;;;11.24;74.40
75051;BME280;63628;47.656;11.310;2023-05-02T00:35:36;94873.63;;;11.19;75.25
75051;BME280;63628;47.656;11.310;2023-05-02T00:38:02;94873.41;;;11.20;74.76
75051;BME280;63628;47.656;11.310;2023-05-02T00:40:30;94873.75;;;11.12;73.79
75051;BME280;63628;47.656;11.310;2023-05-02T00:42:58;94868.56;;;11.17;74.65
75051;BME280;63628;47.656;11.310;2023-05-02T00:45:25;94870.97;;;11.19;74.53
75051;BME280;63628;47.656;11.310;2023-05-02T00:47:51;94873.06;;;11.17;74.64
75051;BME280;63628;47.656;11.310;2023-05-02T00:50:18;94875.81;;;11.22;74.57
75051;BME280;63628;47.656;11.310;2023-05-02T00:52:45;94876.28;;;11.19;73.52
75051;BME280;63628;47.656;11.310;2023-05-02T00:55:12;94877.88;;;11.20;73.52
75051;BME280;63628;47.656;11.310;2023-05-02T00:57:39;94877.31;;;11.18;74.75
75051;BME280;63628;47.656;11.310;2023-05-02T01:00:10;94880.44;;;11.15;74.61
75051;BME280;63628;47.656;11.310;2023-05-02T01:02:46;94877.44;;;11.11;75.14
75051;BME280;63628;47.656;11.310;2023-05-02T01:05:16;94883.31;;;11.13;75.16
75051;BME280;63628;47.656;11.310;2023-05-02T01:07:56;94877.53;;;11.04;74.98
75051;BME280;63628;47.656;11.310;2023-05-02T01:10:36;94880.34;;;11.09;75.15
75051;BME280;63628;47.656;11.310;2023-05-02T01:13:09;94881.81;;;11.17;75.21
75051;BME280;63628;47.656;11.310;2023-05-02T01:15:41;94882.50;;;11.13;74.88
75051;BME280;63628;47.656;11.310;2023-05-02T01:18:11;94885.16;;;11.13;75.05
75051;BME280;63628;47.656;11.310;2023-05-02T01:20:41;94893.44;;;11.16;75.08
75051;BME280;63628;47.656;11.310;2023-05-02T01:23:15;94893.69;;;11.15;74.54
75051;BME280;63628;47.656;11.310;2023-05-02T01:25:52;94895.75;;;11.13;74.47
75051;BME280;63628;47.656;11.310;2023-05-02T01:28:29;94906.34;;;11.13;74.99
75051;BME280;63628;47.656;11.310;2023-05-02T01:31:00;94894.84;;;11.07;75.65
75051;BME280;63628;47.656;11.310;2023-05-02T01:33:29;94900.81;;;11.02;75.59
75051;BME280;63628;47.656;11.310;2023-05-02T01:35:58;94907.72;;;11.03;75.63
75051;BME280;63628;47.656;11.310;2023-05-02T01:38:28;94904.75;;;11.11;74.83
75051;BME280;63628;47.656;11.310;2023-05-02T01:40:56;94909.00;;;11.13;74.49
75051;BME280;63628;47.656;11.310;2023-05-02T01:43:29;94911.78;;;11.06;75.79
75051;BME280;63628;47.656;11.310;2023-05-02T01:46:00;94908.31;;;11.05;75.43
75051;BME280;63628;47.656;11.310;2023-05-02T01:48:30;94905.06;;;11.03;75.78
75051;BME280;63628;47.656;11.310;2023-05-02T01:50:58;94903.03;;;11.05;74.95
75051;BME280;63628;47.656;11.310;2023-05-02T01:53:27;94910.84;;;10.77;76.21
75051;BME280;63628;47.656;11.310;2023-05-02T01:55:54;94913.03;;;10.15;77.19
75051;BME280;63628;47.656;11.310;2023-05-02T01:58:25;94914.94;;;9.48;82.34
75051;BME280;63628;47.656;11.310;2023-05-02T02:00:53;94911.19;;;10.69;76.81
75051;BME280;63628;47.656;11.310;2023-05-02T02:03:23;94915.31;;;10.88;76.71
75051;BME280;63628;47.656;11.310;2023-05-02T02:05:51;94905.44;;;10.84;75.94
75051;BME280;63628;47.656;11.310;2023-05-02T02:08:18;94908.53;;;10.92;75.98
75051;BME280;63628;47.656;11.310;2023-05-02T02:10:49;94921.41;;;10.42;76.11
75051;BME280;63628;47.656;11.310;2023-05-02T02:13:25;94919.47;;;10.19;77.89
75051;BME280;63628;47.656;11.310;2023-05-02T02:15:58;94914.41;;;10.71;77.16
75051;BME280;63628;47.656;11.310;2023-05-02T02:18:26;94914.97;;;10.85;75.93
75051;BME280;63628;47.656;11.310;2023-05-02T02:20:54;94918.53;;;10.90;75.83
75051;BME280;63628;47.656;11.310;2023-05-02T02:23:26;94909.34;;;10.93;75.55
75051;BME280;63628;47.656;11.310;2023-05-02T02:25:54;94913.59;;;10.94;75.41
75051;BME280;63628;47.656;11.310;2023-05-02T02:28:22;94910.94;;;10.94;74.76
75051;BME280;63628;47.656;11.310;2023-05-02T02:30:49;94920.38;;;11.01;75.10
75051;BME280;63628;47.656;11.310;2023-05-02T02:33:16;94924.66;;;10.79;75.71
75051;BME280;63628;47.656;11.310;2023-05-02T02:35:49;94913.81;;;10.92;75.68
75051;BME280;63628;47.656;11.310;2023-05-02T02:38:26;94920.28;;;10.96;75.46
75051;BME280;63628;47.656;11.310;2023-05-02T02:41:02;94922.69;;;10.98;75.25
75051;BME280;63628;47.656;11.310;2023-05-02T02:43:36;94918.91;;;10.94;74.89
75051;BME280;63628;47.656;11.310;2023-05-02T02:46:14;94919.59;;;10.89;75.64
75051;BME280;63628;47.656;11.310;2023-05-02T02:48:49;94926.03;;;10.93;74.91
75051;BME280;63628;47.656;11.310;2023-05-02T02:51:26;94917.28;;;10.93;75.67
75051;BME280;63628;47.656;11.310;2023-05-02T02:53:59;94927.41;;;10.96;75.20
75051;BME280;63628;47.656;11.310;2023-05-02T02:56:45;94927.19;;;10.97;74.44
75051;BME280;63628;47.656;11.310;2023-05-02T02:59:17;94933.06;;;10.99;74.45
75051;BME280;63628;47.656;11.310;2023-05-02T03:01:47;94929.81;;;10.97;74.97
75051;BME280;63628;47.656;11.310;2023-05-02T03:04:21;94925.81;;;10.95;73.58
75051;BME280;63628;47.656;11.310;2023-05-02T03:06:50;94925.00;;;10.94;75.24
75051;BME280;63628;47.656;11.310;2023-05-02T03:09:17;94928.00;;;10.86;75.35
75051;BME280;63628;47.656;11.310;2023-05-02T03:11:44;94933.50;;;10.85;75.71
75051;BME280;63628;47.656;11.310;2023-05-02T03:14:13;94932.03;;;10.89;75.56
75051;BME280;63628;47.656;11.310;2023-05-02T03:16:40;94928.09;;;10.91;75.07
75051;BME280;63628;47.656;11.310;2023-05-02T03:19:07;94928.09;;;10.91;75.21
75051;BME280;63628;47.656;11.310;2023-05-02T03:21:34;94933.06;;;10.88;75.43
75051;BME280;63628;47.656;11.310;2023-05-02T03:24:03;94931.09;;;10.95;74.97
75051;BME280;63628;47.656;11.310;2023-05-02T03:26:30;94938.13;;;10.89;74.39
75051;BME280;63628;47.656;11.310;2023-05-02T03:28:56;94925.91;;;10.65;76.06
75051;BME280;63628;47.656;11.310;2023-05-02T03:31:23;94935.34;;;10.84;75.64
75051;BME280;63628;47.656;11.310;2023-05-02T03:33:52;94931.22;;;10.88;75.10
75051;BME280;63628;47.656;11.310;2023-05-02T03:36:19;94934.66;;;10.89;75.38
75051;BME280;63628;47.656;11.310;2023-05-02T03:38:46;94941.00;;;10.88;75.37
75051;BME280;63628;47.656;11.310;2023-05-02T03:41:14;94942.16;;;10.92;74.78
75051;BME280;63628;47.656;11.310;2023-05-02T03:43:40;94930.06;;;10.84;75.14
75051;BME280;63628;47.656;11.310;2023-05-02T03:46:08;94938.69;;;10.91;74.78
75051;BME280;63628;47.656;11.310;2023-05-02T03:48:35;94946.41;;;10.93;74.94
75051;BME280;63628;47.656;11.310;2023-05-02T03:51:03;94943.28;;;10.84;74.91
75051;BME280;63628;47.656;11.310;2023-05-02T03:53:30;94947.22;;;10.82;75.24
75051;BME280;63628;47.656;11.310;2023-05-02T03:55:57;94938.94;;;10.90;74.79
75051;BME280;63628;47.656;11.310;2023-05-02T03:58:25;94941.47;;;10.85;75.25
75051;BME280;63628;47.656;11.310;2023-05-02T04:00:52;94950.78;;;10.87;75.31
75051;BME280;63628;47.656;11.310;2023-05-02T04:03:20;94957.22;;;10.91;74.63
75051;BME280;63628;47.656;11.310;2023-05-02T04:05:47;94955.84;;;10.89;75.21
75051;BME280;63628;47.656;11.310;2023-05-02T04:08:14;94959.53;;;10.88;74.58
75051;BME280;63628;47.656;11.310;2023-05-02T04:10:40;94964.03;;;10.87;74.87
75051;BME280;63628;47.656;11.310;2023-05-02T04:13:07;94969.97;;;10.59;75.50
75051;BME280;63628;47.656;11.310;2023-05-02T04:15:36;94970.97;;;9.68;82.58
75051;BME280;63628;47.656;11.310;2023-05-02T04:18:03;94978.38;;;10.26;78.23
75051;BME280;63628;47.656;11.310;2023-05-02T04:20:30;94976.44;;;10.63;76.33
75051;BME280;63628;47.656;11.310;2023-05-02T04:22:57;94983.81;;;10.73;75.62
75051;BME280;63628;47.656;11.310;2023-05-02T04:25:23;94982.53;;;10.75;75.30
75051;BME280;63628;47.656;11.310;2023-05-02T04:27:50;94984.63;;;10.85;74.93
75051;BME280;63628;47.656;11.310;2023-05-02T04:30:17;94988.88;;;10.86;74.88
75051;BME280;63628;47.656;11.310;2023-05-02T04:32:45;94993.03;;;10.82;75.17
75051;BME280;63628;47.656;11.310;2023-05-02T04:35:12;95003.25;;;10.78;74.95
75051;BME280;63628;47.656;11.310;2023-05-02T04:37:40;95005.34;;;10.76;75.55
75051;BME280;63628;47.656;11.310;2023-05-02T04:40:08;95002.78;;;10.70;75.92
75051;BME280;63628;47.656;11.310;2023-05-02T04:42:35;94976.88;;;10.60;75.26
75051;BME280;63628;47.656;11.310;2023-05-02T04:45:01;95018.00;;;10.86;74.32
75051;BME280;63628;47.656;11.310;2023-05-02T04:47:28;95021.34;;;10.82;75.11
75051;BME280;63628;47.656;11.310;2023-05-02T04:49:56;95028.03;;;10.84;74.34
75051;BME280;63628;47.656;11.310;2023-05-02T04:52:24;95021.91;;;10.84;75.13
75051;BME280;63628;47.656;11.310;2023-05-02T04:54:50;95023.63;;;10.78;74.54
75051;BME280;63628;47.656;11.310;2023-05-02T04:57:17;95031.00;;;10.76;75.16
75051;BME280;63628;47.656;11.310;2023-05-02T04:59:46;95033.41;;;10.77;75.07
75051;BME280;63628;47.656;11.310;2023-05-02T05:02:13;95036.41;;;10.69;75.16
75051;BME280;63628;47.656;11.310;2023-05-02T05:04:40;95044.09;;;10.71;75.29
75051;BME280;63628;47.656;11.310;2023-05-02T05:07:07;95045.03;;;10.76;75.79
75051;BME280;63628;47.656;11.310;2023-05-02T05:09:34;95041.72;;;10.81;75.08
75051;BME280;63628;47.656;11.310;2023-05-02T05:12:01;95048.28;;;10.78;74.75
75051;BME280;63628;47.656;11.310;2023-05-02T05:14:27;95051.59;;;10.74;75.18
75051;BME280;63628;47.656;11.310;2023-05-02T05:16:54;95055.63;;;10.76;74.88
75051;BME280;63628;47.656;11.310;2023-05-02T05:19:21;95051.34;;;10.64;76.20
75051;BME280;63628;47.656;11.310;2023-05-02T05:21:47;95065.16;;;10.66;76.38
75051;BME280;63628;47.656;11.310;2023-05-02T05:24:15;95062.63;;;10.71;75.44
75051;BME280;63628;47.656;11.310;2023-05-02T05:26:42;95058.63;;;10.80;74.91
75051;BME280;63628;47.656;11.310;2023-05-02T05:29:08;95070.28;;;10.31;78.13
75051;BME280;63628;47.656;11.310;2023-05-02T05:31:35;95075.63;;;10.61;76.33
75051;BME280;63628;47.656;11.310;2023-05-02T05:34:02;95078.53;;;10.71;75.63
75051;BME280;63628;47.656;11.310;2023-05-02T05:36:30;95082.69;;;10.78;74.74
75051;BME280;63628;47.656;11.310;2023-05-02T05:38:57;95086.59;;;10.76;75.04
75051;BME280;63628;47.656;11.310;2023-05-02T05:41:25;95090.03;;;10.76;75.06
75051;BME280;63628;47.656;11.310;2023-05-02T05:43:52;95088.78;;;10.79;74.89
75051;BME280;63628;47.656;11.310;2023-05-02T05:46:19;95086.91;;;10.68;75.79
75051;BME280;63628;47.656;11.310;2023-05-02T05:48:45;95097.72;;;10.66;76.03
75051;BME280;63628;47.656;11.310;2023-05-02T05:51:12;95104.91;;;10.77;75.49
75051;BME280;63628;47.656;11.310;2023-05-02T05:53:39;95104.91;;;10.77;75.36
75051;BME280;63628;47.656;11.310;2023-05-02T05:56:08;95105.88;;;10.65;75.76
75051;BME280;63628;47.656;11.310;2023-05-02T05:58:36;95106.66;;;9.80;81.36
75051;BME280;63628;47.656;11.310;2023-05-02T06:01:04;95114.97;;;10.21;78.31
75051;BME280;63628;47.656;11.310;2023-05-02T06:03:30;95104.91;;;10.47;76.07
75051;BME280;63628;47.656;11.310;2023-05-02T06:05:57;95111.44;;;10.45;76.53
75051;BME280;63628;47.656;11.310;2023-05-02T06:08:25;95111.09;;;10.41;76.54
75051;BME280;63628;47.656;11.310;2023-05-02T06:10:52;95114.16;;;10.57;75.60
75051;BME280;63628;47.656;11.310;2023-05-02T06:13:18;95114.53;;;10.05;81.08
75051;BME280;63628;47.656;11.310;2023-05-02T06:15:46;95124.16;;;10.36;77.24
75051;BME280;63628;47.656;11.310;2023-05-02T06:18:13;95119.06;;;10.53;76.08
75051;BME280;63628;47.656;11.310;2023-05-02T06:20:40;95129.44;;;10.55;76.99
75051;BME280;63628;47.656;11.310;2023-05-02T06:23:07;95126.41;;;9.53;83.28
75051;BME280;63628;47.656;11.310;2023-05-02T06:25:36;95126.56;;;10.01;79.16
75051;BME280;63628;47.656;11.310;2023-05-02T06:28:03;95128.13;;;10.45;76.50
75051;BME280;63628;47.656;11.310;2023-05-02T06:30:29;95135.31;;;10.38;77.26
75051;BME280;63628;47.656;11.310;2023-05-02T06:32:57;95131.94;;;10.50;76.58
75051;BME280;63628;47.656;11.310;2023-05-02T06:35:24;95140.38;;;10.58;75.97
75051;BME280;63628;47.656;11.310;2023-05-02T06:37:51;95145.22;;;10.61;75.74
75051;BME280;63628;47.656;11.310;2023-05-02T06:40:17;95139.34;;;9.86;80.44
75051;BME280;63628;47.656;11.310;2023-05-02T06:42:44;95147.44;;;9.66;83.30
75051;BME280;63628;47.656;11.310;2023-05-02T06:45:11;95142.81;;;9.37;85.33
75051;BME280;63628;47.656;11.310;2023-05-02T06:47:37;95152.78;;;9.84;83.09
75051;BME280;63628;47.656;11.310;2023-05-02T06:50:07;95153.66;;;9.29;84.90
75051;BME280;63628;47.656;11.310;2023-05-02T06:52:33;95150.00;;;9.98;80.36
75051;BME280;63628;47.656;11.310;2023-05-02T06:55:00;95160.66;;;9.66;81.76
75051;BME280;63628;47.656;11.310;2023-05-02T06:57:27;95159.63;;;9.42;84.65
75051;BME280;63628;47.656;11.310;2023-05-02T06:59:54;95164.47;;;9.95;81.29
75051;BME280;63628;47.656;11.310;2023-05-02T07:02:21;95167.94;;;10.32;77.19
75051;BME280;63628;47.656;11.310;2023-05-02T07:04:48;95165.19;;;10.45;77.20
75051;BME280;63628;47.656;11.310;2023-05-02T07:07:16;95172.66;;;10.48;76.84
75051;BME280;63628;47.656;11.310;2023-05-02T07:09:44;95170.59;;;10.51;76.50
75051;BME280;63628;47.656;11.310;2023-05-02T07:12:11;95173.84;;;10.53;76.91
75051;BME280;63628;47.656;11.310;2023-05-02T07:14:38;95174.13;;;10.26;79.31
75051;BME280;63628;47.656;11.310;2023-05-02T07:17:04;95170.41;;;10.09;80.69
75051;BME280;63628;47.656;11.310;2023-05-02T07:19:31;95176.66;;;9.71;82.00
75051;BME280;63628;47.656;11.310;2023-05-02T07:21:58;95180.16;;;9.65;83.17
75051;BME280;63628;47.656;11.310;2023-05-02T07:24:26;95169.72;;;10.20;78.70
75051;BME280;63628;47.656;11.310;2023-05-02T07:26:53;95174.38;;;10.43;76.59
75051;BME280;63628;47.656;11.310;2023-05-02T07:29:20;95172.44;;;10.50;76.50
75051;BME280;63628;47.656;11.310;2023-05-02T07:31:47;95168.50;;;10.16;79.79
75051;BME280;63628;47.656;11.310;2023-05-02T07:34:14;95174.47;;;10.11;82.19
75051;BME280;63628;47.656;11.310;2023-05-02T07:36:41;95169.72;;;10.20;79.39
75051;BME280;63628;47.656;11.310;2023-05-02T07:39:07;95168.09;;;10.37;81.43
75051;BME280;63628;47.656;11.310;2023-05-02T07:41:35;95167.94;;;9.71;83.02
75051;BME280;63628;47.656;11.310;2023-05-02T07:44:02;95164.66;;;9.50;84.19
75051;BME280;63628;47.656;11.310;2023-05-02T07:46:29;95170.41;;;9.41;84.17
75051;BME280;63628;47.656;11.310;2023-05-02T07:48:56;95177.31;;;9.67;85.31
75051;BME280;63628;47.656;11.310;2023-05-02T07:51:23;95176.78;;;9.83;84.18
75051;BME280;63628;47.656;11.310;2023-05-02T07:53:51;95180.00;;;9.60;82.46
75051;BME280;63628;47.656;11.310;2023-05-02T07:56:20;95173.84;;;9.91;81.37
75051;BME280;63628;47.656;11.310;2023-05-02T07:58:48;95181.94;;;10.14;81.63
75051;BME280;63628;47.656;11.310;2023-05-02T08:01:17;95179.34;;;10.33;81.89
75051;BME280;63628;47.656;11.310;2023-05-02T08:03:44;95180.78;;;10.10;79.77
75051;BME280;63628;47.656;11.310;2023-05-02T08:06:11;95191.25;;;10.24;78.59
75051;BME280;63628;47.656;11.310;2023-05-02T08:08:38;95180.06;;;10.40;78.18
75051;BME280;63628;47.656;11.310;2023-05-02T08:11:05;95195.44;;;10.50;77.32
75051;BME280;63628;47.656;11.310;2023-05-02T08:13:32;95189.13;;;10.51;78.09
75051;BME280;63628;47.656;11.310;2023-05-02T08:16:00;95186.25;;;10.52;77.08
75051;BME280;63628;47.656;11.310;2023-05-02T08:18:28;95186.03;;;10.54;78.12
75051;BME280;63628;47.656;11.310;2023-05-02T08:20:55;95186.63;;;10.56;78.54
75051;BME280;63628;47.656;11.310;2023-05-02T08:23:23;95185.88;;;10.67;79.26
75051;BME280;63628;47.656;11.310;2023-05-02T08:25:50;95186.91;;;10.66;78.98
75051;BME280;63628;47.656;11.310;2023-05-02T08:28:17;95188.81;;;10.59;77.63
75051;BME280;63628;47.656;11.310;2023-05-02T08:30:44;95185.16;;;10.60;77.71
75051;BME280;63628;47.656;11.310;2023-05-02T08:33:12;95188.16;;;10.63;78.91
75051;BME280;63628;47.656;11.310;2023-05-02T08:35:39;95183.09;;;10.62;77.66
75051;BME280;63628;47.656;11.310;2023-05-02T08:38:06;95187.38;;;11.23;77.30
75051;BME280;63628;47.656;11.310;2023-05-02T08:40:35;95182.97;;;11.70;77.67
75051;BME280;63628;47.656;11.310;2023-05-02T08:43:09;95187.69;;;11.68;75.20
75051;BME280;63628;47.656;11.310;2023-05-02T08:45:38;95194.03;;;11.14;74.23
75051;BME280;63628;47.656;11.310;2023-05-02T08:48:07;95189.78;;;11.24;74.45
75051;BME280;63628;47.656;11.310;2023-05-02T08:50:38;95191.47;;;11.49;77.43
75051;BME280;63628;47.656;11.310;2023-05-02T08:53:05;95198.81;;;11.88;75.47
75051;BME280;63628;47.656;11.310;2023-05-02T08:55:34;95200.66;;;11.34;75.46
75051;BME280;63628;47.656;11.310;2023-05-02T08:58:02;95200.94;;;11.15;74.23
75051;BME280;63628;47.656;11.310;2023-05-02T09:00:30;95197.66;;;11.31;74.16
75051;BME280;63628;47.656;11.310;2023-05-02T09:03:05;95204.81;;;11.42;72.69
75051;BME280;63628;47.656;11.310;2023-05-02T09:05:39;95204.91;;;11.77;75.41
75051;BME280;63628;47.656;11.310;2023-05-02T09:08:07;95200.31;;;11.84;71.63
75051;BME280;63628;47.656;11.310;2023-05-02T09:10:34;95197.78;;;12.36;72.32
75051;BME280;63628;47.656;11.310;2023-05-02T09:13:27;95203.19;;;12.41;73.45
75051;BME280;63628;47.656;11.310;2023-05-02T09:15:58;95194.78;;;12.21;70.77
75051;BME280;63628;47.656;11.310;2023-05-02T09:18:30;95205.72;;;11.78;70.55
75051;BME280;63628;47.656;11.310;2023-05-02T09:20:59;95209.13;;;11.66;70.89
75051;BME280;63628;47.656;11.310;2023-05-02T09:23:37;95206.31;;;11.91;72.22
75051;BME280;63628;47.656;11.310;2023-05-02T09:26:15;95199.84;;;12.46;70.35
75051;BME280;63628;47.656;11.310;2023-05-02T09:28:43;95200.94;;;13.58;72.88
75051;BME280;63628;47.656;11.310;2023-05-02T09:31:12;95203.75;;;13.52;67.63
75051;BME280;63628;47.656;11.310;2023-05-02T09:33:44;95209.66;;;11.87;72.99
75051;BME280;63628;47.656;11.310;2023-05-02T09:36:14;95211.28;;;11.46;74.68
75051;BME280;63628;47.656;11.310;2023-05-02T09:38:41;95205.47;;;11.26;76.10
75051;BME280;63628;47.656;11.310;2023-05-02T09:41:08;95199.38;;;12.49;75.97
75051;BME280;63628;47.656;11.310;2023-05-02T09:43:35;95210.25;;;12.12;73.33
75051;BME280;63628;47.656;11.310;2023-05-02T09:46:04;95208.59;;;11.34;75.94
75051;BME280;63628;47.656;11.310;2023-05-02T09:48:50;95209.59;;;11.22;76.65
75051;BME280;63628;47.656;11.310;2023-05-02T09:51:19;95215.94;;;11.21;77.59
75051;BME280;63628;47.656;11.310;2023-05-02T09:53:47;95215.13;;;11.20;77.66
75051;BME280;63628;47.656;11.310;2023-05-02T09:56:14;95216.91;;;12.50;79.11
75051;BME280;63628;47.656;11.310;2023-05-02T09:58:41;95209.72;;;12.74;72.89
75051;BME280;63628;47.656;11.310;2023-05-02T10:01:13;95221.69;;;11.59;78.73
75051;BME280;63628;47.656;11.310;2023-05-02T10:03:40;95218.53;;;12.16;77.66
75051;BME280;63628;47.656;11.310;2023-05-02T10:06:08;95217.88;;;11.55;76.55
75051;BME280;63628;47.656;11.310;2023-05-02T10:08:38;95218.41;;;11.34;77.95
75051;BME280;63628;47.656;11.310;2023-05-02T10:11:07;95220.91;;;11.29;78.14
75051;BME280;63628;47.656;11.310;2023-05-02T10:13:36;95212.97;;;11.29;79.00
75051;BME280;63628;47.656;11.310;2023-05-02T10:16:05;95229.66;;;11.29;78.98
75051;BME280;63628;47.656;11.310;2023-05-02T10:18:39;95219.88;;;11.30;78.51
75051;BME280;63628;47.656;11.310;2023-05-02T10:21:09;95231.28;;;11.30;79.01
75051;BME280;63628;47.656;11.310;2023-05-02T10:23:40;95223.59;;;11.40;80.41
75051;BME280;63628;47.656;11.310;2023-05-02T10:26:07;95223.50;;;12.47;75.16
75051;BME280;63628;47.656;11.310;2023-05-02T10:28:35;95224.66;;;12.51;74.84
75051;BME280;63628;47.656;11.310;2023-05-02T10:31:04;95228.25;;;11.68;76.46
75051;BME280;63628;47.656;11.310;2023-05-02T10:33:33;95230.78;;;11.63;78.84
75051;BME280;63628;47.656;11.310;2023-05-02T10:36:00;95231.09;;;11.43;78.28
75051;BME280;63628;47.656;11.310;2023-05-02T10:38:27;95233.09;;;11.60;78.33
75051;BME280;63628;47.656;11.310;2023-05-02T10:40:59;95236.66;;;12.19;75.27
75051;BME280;63628;47.656;11.310;2023-05-02T10:43:31;95236.06;;;11.52;77.49
75051;BME280;63628;47.656;11.310;2023-05-02T10:45:59;95235.97;;;11.58;77.60
75051;BME280;63628;47.656;11.310;2023-05-02T10:48:27;95239.53;;;11.52;78.29
75051;BME280;63628;47.656;11.310;2023-05-02T10:50:55;95238.13;;;11.50;77.87
75051;BME280;63628;47.656;11.310;2023-05-02T10:53:32;95233.94;;;11.72;75.36
75051;BME280;63628;47.656;11.310;2023-05-02T10:56:17;95236.38;;;11.73;77.23
75051;BME280;63628;47.656;11.310;2023-05-02T10:58:48;95235.50;;;11.61;77.53
75051;BME280;63628;47.656;11.310;2023-05-02T11:01:34;95237.09;;;11.81;75.41
75051;BME280;63628;47.656;11.310;2023-05-02T11:04:04;95235.84;;;11.95;74.45
75051;BME280;63628;47.656;11.310;2023-05-02T11:06:33;95233.19;;;11.95;74.33
75051;BME280;63628;47.656;11.310;2023-05-02T11:09:31;95228.72;;;11.65;76.27
75051;BME280;63628;47.656;11.310;2023-05-02T11:12:00;95230.53;;;11.53;77.35
75051;BME280;63628;47.656;11.310;2023-05-02T11:14:45;95228.13;;;11.52;78.55
75051;BME280;63628;47.656;11.310;2023-05-02T11:17:13;95226.50;;;11.51;75.57
75051;BME280;63628;47.656;11.310;2023-05-02T11:23:21;95232.19;;;11.66;74.02
75051;BME280;63628;47.656;11.310;2023-05-02T11:25:53;95233.38;;;11.40;75.33
75051;BME280;63628;47.656;11.310;2023-05-02T11:28:41;95235.59;;;11.43;75.93
75051;BME280;63628;47.656;11.310;2023-05-02T11:34:09;95244.34;;;11.43;74.39
75051;BME280;63628;47.656;11.310;2023-05-02T11:36:36;95248.88;;;11.66;73.28
75051;BME280;63628;47.656;11.310;2023-05-02T11:39:03;95247.69;;;11.81;72.42
75051;BME280;63628;47.656;11.310;2023-05-02T11:41:39;95238.75;;;11.63;73.83
75051;BME280;63628;47.656;11.310;2023-05-02T11:44:08;95237.31;;;11.49;77.73
75051;BME280;63628;47.656;11.310;2023-05-02T11:46:35;95243.22;;;11.51;78.06
75051;BME280;63628;47.656;11.310;2023-05-02T11:49:02;95237.63;;;11.71;77.29
75051;BME280;63628;47.656;11.310;2023-05-02T11:51:32;95244.50;;;11.60;78.62
75051;BME280;63628;47.656;11.310;2023-05-02T11:53:59;95238.22;;;11.73;78.27
75051;BME280;63628;47.656;11.310;2023-05-02T11:56:25;95235.34;;;11.74;77.60
75051;BME280;63628;47.656;11.310;2023-05-02T11:58:57;95225.31;;;11.77;76.77
75051;BME280;63628;47.656;11.310;2023-05-02T12:01:26;95229.97;;;11.63;79.07
75051;BME280;63628;47.656;11.310;2023-05-02T12:04:01;95236.44;;;11.67;78.98
75051;BME280;63628;47.656;11.310;2023-05-02T12:06:27;95228.13;;;12.40;76.14
75051;BME280;63628;47.656;11.310;2023-05-02T12:09:05;95223.38;;;13.06;74.25
75051;BME280;63628;47.656;11.310;2023-05-02T12:11:32;95225.56;;;13.09;75.98
75051;BME280;63628;47.656;11.310;2023-05-02T12:13:59;95230.59;;;12.82;74.15
75051;BME280;63628;47.656;11.310;2023-05-02T12:16:27;95230.06;;;11.86;78.63
75051;BME280;63628;47.656;11.310;2023-05-02T12:18:54;95238.72;;;12.17;76.87
75051;BME280;63628;47.656;11.310;2023-05-02T12:21:23;95238.63;;;12.12;77.20
75051;BME280;63628;47.656;11.310;2023-05-02T12:23:50;95236.41;;;12.20;76.95
75051;BME280;63628;47.656;11.310;2023-05-02T12:26:18;95239.78;;;12.16;78.16
75051;BME280;63628;47.656;11.310;2023-05-02T12:28:48;95230.88;;;11.87;78.25
75051;BME280;63628;47.656;11.310;2023-05-02T12:31:16;95238.25;;;13.18;74.00
75051;BME280;63628;47.656;11.310;2023-05-02T12:33:45;95238.97;;;12.03;78.17
75051;BME280;63628;47.656;11.310;2023-05-02T12:36:13;95234.22;;;12.17;76.63
75051;BME280;63628;47.656;11.310;2023-05-02T12:38:47;95242.41;;;12.16;77.41
75051;BME280;63628;47.656;11.310;2023-05-02T12:41:14;95220.94;;;12.52;77.18
75051;BME280;63628;47.656;11.310;2023-05-02T12:43:45;95225.47;;;12.05;78.09
75051;BME280;63628;47.656;11.310;2023-05-02T12:46:12;95234.56;;;11.97;78.80
75051;BME280;63628;47.656;11.310;2023-05-02T12:48:39;95232.16;;;12.19;76.56
75051;BME280;63628;47.656;11.310;2023-05-02T12:51:19;95225.81;;;11.97;78.76
75051;BME280;63628;47.656;11.310;2023-05-02T12:53:46;95232.72;;;11.98;78.81
75051;BME280;63628;47.656;11.310;2023-05-02T12:56:12;95238.38;;;12.01;78.79
75051;BME280;63628;47.656;11.310;2023-05-02T12:58:41;95230.88;;;11.98;78.47
75051;BME280;63628;47.656;11.310;2023-05-02T13:01:08;95234.94;;;12.13;77.89
75051;BME280;63628;47.656;11.310;2023-05-02T13:03:36;95242.09;;;12.35;76.96
75051;BME280;63628;47.656;11.310;2023-05-02T13:06:03;95240.81;;;12.03;78.09